Time;durP1;ratioP1;P1;durP2;ratioP2;P2;SDS_P1;SDS_P2;PMS_P1;PMS_P2;Temp;Humidity;BMP_temperature;BMP_pressure;BME280_temperature;BME280_humidity;BME280_pressure;Samples;Min_cycle;Max_cycle;Signal;HPM_P1;HPM_P2
2022/05/12 00:00:36;;;;;;;9.93;3.23;;;;;;;;;;5008768;28;20179;-70
2022/05/12 00:03:02;;;;;;;10.07;2.23;;;;;;;;;;5012683;28;20182;-71
2022/05/12 00:05:27;;;;;;;4.23;2.43;;;;;;;;;;5008002;28;20209;-72
2022/05/12 00:07:53;;;;;;;6.23;1.90;;;;;;;;;;5015340;28;20707;-71
2022/05/12 00:10:19;;;;;;;8.03;2.37;;;;;;;;;;5020791;28;20563;-71
2022/05/12 00:12:45;;;;;;;10.87;2.80;;;;;;;;;;5026729;28;20547;-71
2022/05/12 00:15:16;;;;;;;12.33;3.83;;;;;;;;;;5022361;28;20241;-70
2022/05/12 00:17:44;;;;;;;10.27;2.73;;;;;;;;;;5029519;28;20546;-73
2022/05/12 00:20:09;;;;;;;6.43;2.20;;;;;;;;;;5019881;28;20191;-69
2022/05/12 00:22:35;;;;;;;9.77;2.73;;;;;;;;;;5015362;28;20829;-72
2022/05/12 00:25:00;;;;;;;6.13;2.27;;;;;;;;;;5018397;28;20201;-70
2022/05/12 00:27:25;;;;;;;10.57;2.70;;;;;;;;;;5030912;28;20880;-72
2022/05/12 00:29:50;;;;;;;5.37;2.13;;;;;;;;;;5017769;28;20167;-71
2022/05/12 00:32:16;;;;;;;8.77;2.60;;;;;;;;;;5023964;28;20194;-71
2022/05/12 00:34:41;;;;;;;9.47;2.47;;;;;;;;;;5026461;28;20182;-72
2022/05/12 00:37:08;;;;;;;8.40;2.20;;;;;;;;;;5021890;28;20252;-71
2022/05/12 00:39:33;;;;;;;9.00;2.77;;;;;;;;;;5030227;28;20189;-71
2022/05/12 00:41:59;;;;;;;11.10;2.87;;;;;;;;;;5023011;28;20194;-72
2022/05/12 00:44:24;;;;;;;7.93;2.77;;;;;;;;;;5030181;28;20217;-71
2022/05/12 00:46:50;;;;;;;5.07;2.37;;;;;;;;;;5023535;28;20261;-72
2022/05/12 00:49:15;;;;;;;8.20;2.33;;;;;;;;;;5032037;28;20174;-71
2022/05/12 00:51:54;;;;;;;8.80;2.67;;;;;;;;;;5032468;28;20597;-72
2022/05/12 00:54:22;;;;;;;6.50;3.03;;;;;;;;;;5025738;28;20481;-70
2022/05/12 00:56:49;;;;;;;9.77;2.93;;;;;;;;;;5028667;28;20179;-72
2022/05/12 00:59:16;;;;;;;8.27;2.70;;;;;;;;;;5029639;28;20194;-70
2022/05/12 01:01:42;;;;;;;8.93;3.17;;;;;;;;;;5018394;28;20199;-72
2022/05/12 01:04:07;;;;;;;8.87;3.27;;;;;;;;;;5032094;28;20244;-72
2022/05/12 01:06:32;;;;;;;7.50;2.87;;;;;;;;;;5032933;28;20186;-73
2022/05/12 01:08:58;;;;;;;10.97;3.10;;;;;;;;;;5022302;28;20257;-73
2022/05/12 01:11:23;;;;;;;9.80;3.40;;;;;;;;;;5025143;28;20201;-73
2022/05/12 01:13:54;;;;;;;7.07;3.00;;;;;;;;;;5027631;28;20555;-73
2022/05/12 01:16:34;;;;;;;9.70;3.33;;;;;;;;;;5030701;28;20179;-73
2022/05/12 01:19:00;;;;;;;9.57;3.53;;;;;;;;;;5040522;28;20187;-71
2022/05/12 01:21:25;;;;;;;7.50;3.20;;;;;;;;;;5025635;28;20697;-73
2022/05/12 01:23:51;;;;;;;8.50;3.40;;;;;;;;;;5027295;28;20197;-73
2022/05/12 01:26:16;;;;;;;8.00;3.23;;;;;;;;;;5018758;28;20682;-72
2022/05/12 01:28:41;;;;;;;7.00;2.87;;;;;;;;;;5022280;28;20544;-72
2022/05/12 01:31:07;;;;;;;8.10;3.63;;;;;;;;;;5033861;28;20201;-72
2022/05/12 01:33:33;;;;;;;7.20;3.17;;;;;;;;;;5029158;28;20205;-72
2022/05/12 01:35:58;;;;;;;7.93;3.30;;;;;;;;;;5028537;28;20205;-72
2022/05/12 01:38:23;;;;;;;9.90;3.90;;;;;;;;;;5028626;28;20525;-72
2022/05/12 01:40:49;;;;;;;6.73;3.73;;;;;;;;;;5021057;28;20198;-70
2022/05/12 01:43:15;;;;;;;10.50;4.47;;;;;;;;;;5033429;28;20181;-73
2022/05/12 01:45:40;;;;;;;6.93;3.73;;;;;;;;;;5025755;28;20175;-72
2022/05/12 01:48:08;;;;;;;7.07;3.60;;;;;;;;;;5012910;28;20179;-72
2022/05/12 01:50:34;;;;;;;6.40;4.40;;;;;;;;;;5026586;28;20187;-72
2022/05/12 01:52:59;;;;;;;6.53;3.70;;;;;;;;;;5026083;28;20166;-72
2022/05/12 01:55:26;;;;;;;8.67;4.83;;;;;;;;;;5029303;28;20565;-72
2022/05/12 01:57:51;;;;;;;8.17;4.13;;;;;;;;;;5033061;28;20178;-72
2022/05/12 02:00:19;;;;;;;10.53;5.00;;;;;;;;;;5026744;28;20185;-72
2022/05/12 02:02:44;;;;;;;10.00;4.80;;;;;;;;;;5030582;28;20203;-72
2022/05/12 02:05:10;;;;;;;8.73;5.30;;;;;;;;;;5028938;28;20548;-72
2022/05/12 02:07:40;;;;;;;12.33;5.47;;;;;;;;;;5031548;28;20182;-71
2022/05/12 02:10:06;;;;;;;8.53;5.73;;;;;;;;;;5027419;28;20195;-72
2022/05/12 02:12:31;;;;;;;10.90;5.67;;;;;;;;;;5024051;28;20190;-71
2022/05/12 02:14:56;;;;;;;9.97;5.00;;;;;;;;;;5018080;28;20512;-71
2022/05/12 02:17:22;;;;;;;10.17;5.50;;;;;;;;;;5017705;28;20664;-71
2022/05/12 02:19:47;;;;;;;11.23;6.00;;;;;;;;;;5023795;28;20221;-71
2022/05/12 02:22:12;;;;;;;11.20;5.93;;;;;;;;;;5022022;28;20205;-71
2022/05/12 02:24:37;;;;;;;10.33;6.73;;;;;;;;;;5030028;28;20233;-71
2022/05/12 02:27:02;;;;;;;9.83;6.17;;;;;;;;;;5025667;28;20202;-71
2022/05/12 02:29:28;;;;;;;12.53;6.63;;;;;;;;;;5023621;28;20178;-71
2022/05/12 02:31:53;;;;;;;10.80;7.00;;;;;;;;;;5023745;28;20217;-72
2022/05/12 02:34:18;;;;;;;11.63;6.10;;;;;;;;;;5028095;28;20652;-72
2022/05/12 02:36:59;;;;;;;8.83;6.63;;;;;;;;;;5022910;28;20232;-71
2022/05/12 02:39:25;;;;;;;11.03;6.33;;;;;;;;;;5032108;28;20666;-72
2022/05/12 02:41:50;;;;;;;9.17;5.40;;;;;;;;;;5025807;28;20285;-72
2022/05/12 02:44:15;;;;;;;7.17;5.33;;;;;;;;;;5030793;28;20595;-72
2022/05/12 02:46:40;;;;;;;7.37;6.20;;;;;;;;;;5025787;28;20310;-71
2022/05/12 02:49:05;;;;;;;8.63;6.20;;;;;;;;;;5023556;28;20191;-73
2022/05/12 02:51:30;;;;;;;12.33;6.37;;;;;;;;;;5028988;28;20230;-72
2022/05/12 02:53:56;;;;;;;8.23;5.90;;;;;;;;;;5021982;28;20189;-72
2022/05/12 02:56:21;;;;;;;8.73;5.40;;;;;;;;;;5029063;28;20196;-72
2022/05/12 02:58:46;;;;;;;12.47;6.40;;;;;;;;;;5023414;28;20179;-72
2022/05/12 03:01:11;;;;;;;7.43;5.13;;;;;;;;;;5027482;28;20554;-72
2022/05/12 03:03:36;;;;;;;6.97;4.90;;;;;;;;;;5024214;28;20198;-72
2022/05/12 03:06:02;;;;;;;7.03;6.13;;;;;;;;;;5036231;28;20178;-72
2022/05/12 03:08:27;;;;;;;7.10;5.23;;;;;;;;;;5024319;28;22460;-72
2022/05/12 03:10:52;;;;;;;9.70;5.70;;;;;;;;;;5025699;28;20194;-72
2022/05/12 03:13:17;;;;;;;6.73;5.23;;;;;;;;;;5022640;28;20261;-72
2022/05/12 03:15:43;;;;;;;10.33;5.80;;;;;;;;;;5023045;28;20175;-72
2022/05/12 03:18:08;;;;;;;12.98;6.03;;;;;;;;;;5021939;28;20182;-72
2022/05/12 03:20:33;;;;;;;10.07;6.33;;;;;;;;;;5032200;28;20181;-72
2022/05/12 03:22:59;;;;;;;7.30;6.07;;;;;;;;;;5030765;28;20177;-72
2022/05/12 03:25:24;;;;;;;8.70;5.60;;;;;;;;;;5030378;28;20522;-72
2022/05/12 03:27:49;;;;;;;7.90;6.03;;;;;;;;;;5027391;28;20186;-72
2022/05/12 03:30:18;;;;;;;7.33;5.60;;;;;;;;;;5026912;28;20178;-73
2022/05/12 03:32:43;;;;;;;9.00;6.10;;;;;;;;;;5026619;28;20194;-73
2022/05/12 03:35:09;;;;;;;8.93;5.90;;;;;;;;;;5025659;28;20175;-73
2022/05/12 03:37:35;;;;;;;8.43;6.27;;;;;;;;;;5024044;28;20187;-73
2022/05/12 03:40:00;;;;;;;11.57;5.63;;;;;;;;;;5022990;28;20182;-70
2022/05/12 03:42:25;;;;;;;8.13;5.70;;;;;;;;;;5025154;28;20263;-73
2022/05/12 03:44:51;;;;;;;7.90;5.70;;;;;;;;;;5023766;28;20203;-72
2022/05/12 03:47:21;;;;;;;8.33;5.70;;;;;;;;;;5017644;28;20182;-72
2022/05/12 03:49:51;;;;;;;9.07;6.00;;;;;;;;;;5020381;28;20182;-73
2022/05/12 03:52:17;;;;;;;8.30;6.30;;;;;;;;;;5022978;28;20580;-73
2022/05/12 03:54:43;;;;;;;12.27;8.20;;;;;;;;;;5031389;28;20207;-72
2022/05/12 03:57:08;;;;;;;13.47;8.80;;;;;;;;;;5027759;28;20652;-72
2022/05/12 03:59:34;;;;;;;14.90;9.13;;;;;;;;;;5036935;28;20644;-73
2022/05/12 04:01:59;;;;;;;11.60;8.70;;;;;;;;;;5019107;28;20249;-72
2022/05/12 04:04:24;;;;;;;12.60;8.33;;;;;;;;;;5030131;28;20244;-72
2022/05/12 04:06:49;;;;;;;9.27;7.23;;;;;;;;;;5035701;28;20177;-73
2022/05/12 04:09:14;;;;;;;11.73;7.93;;;;;;;;;;5026204;28;20703;-69
2022/05/12 04:11:40;;;;;;;13.50;8.10;;;;;;;;;;5025896;28;20191;-72
2022/05/12 04:14:05;;;;;;;14.00;8.37;;;;;;;;;;5023485;28;20214;-73
2022/05/12 04:16:32;;;;;;;12.27;7.87;;;;;;;;;;5022956;28;20567;-72
2022/05/12 04:18:57;;;;;;;12.97;7.70;;;;;;;;;;5026732;28;20198;-72
2022/05/12 04:21:22;;;;;;;9.97;8.03;;;;;;;;;;5028675;28;20210;-72
2022/05/12 04:23:47;;;;;;;17.40;8.53;;;;;;;;;;5037394;28;20197;-72
2022/05/12 04:26:12;;;;;;;13.33;8.77;;;;;;;;;;5028721;28;20170;-72
2022/05/12 04:28:38;;;;;;;10.07;7.85;;;;;;;;;;5034102;28;20198;-72
2022/05/12 04:31:03;;;;;;;10.60;8.03;;;;;;;;;;5031589;28;20756;-71
2022/05/12 04:36:13;;;;;;;9.37;7.77;;;;;;;;;;5019105;28;20244;-73
2022/05/12 04:38:38;;;;;;;14.07;9.57;;;;;;;;;;5025175;28;20506;-73
2022/05/12 04:41:03;;;;;;;11.80;8.53;;;;;;;;;;5030048;28;20206;-72
2022/05/12 04:43:29;;;;;;;12.73;7.80;;;;;;;;;;5021999;28;20178;-70
2022/05/12 04:45:54;;;;;;;9.03;7.30;;;;;;;;;;5024655;28;20174;-73
2022/05/12 04:48:19;;;;;;;11.37;7.17;;;;;;;;;;5033854;28;20174;-72
2022/05/12 04:50:44;;;;;;;11.27;8.10;;;;;;;;;;5028627;28;20205;-72
2022/05/12 04:53:10;;;;;;;9.83;7.63;;;;;;;;;;5032967;28;20722;-73
2022/05/12 04:55:35;;;;;;;10.00;7.33;;;;;;;;;;5040037;28;20177;-73
2022/05/12 04:58:01;;;;;;;12.53;7.50;;;;;;;;;;5030380;28;20189;-73
2022/05/12 05:00:27;;;;;;;11.60;7.37;;;;;;;;;;5027422;28;20191;-70
2022/05/12 05:02:53;;;;;;;11.50;7.80;;;;;;;;;;5028840;28;20233;-72
2022/05/12 05:05:18;;;;;;;13.30;7.27;;;;;;;;;;5023285;28;20219;-72
2022/05/12 05:07:43;;;;;;;9.00;7.17;;;;;;;;;;5025329;28;20247;-72
2022/05/12 05:10:11;;;;;;;10.63;7.07;;;;;;;;;;5028711;28;20194;-72
2022/05/12 05:12:37;;;;;;;16.87;8.17;;;;;;;;;;5031288;28;20198;-72
2022/05/12 05:15:04;;;;;;;10.30;6.43;;;;;;;;;;5025599;28;20273;-70
2022/05/12 05:17:29;;;;;;;9.23;6.33;;;;;;;;;;5024918;28;20206;-73
2022/05/12 05:19:54;;;;;;;9.70;6.00;;;;;;;;;;5029467;28;20217;-72
2022/05/12 05:22:20;;;;;;;7.77;5.70;;;;;;;;;;5027901;28;20692;-70
2022/05/12 05:24:45;;;;;;;9.60;5.53;;;;;;;;;;5027443;28;20194;-72
2022/05/12 05:27:10;;;;;;;10.80;5.70;;;;;;;;;;5025467;28;20178;-72
2022/05/12 05:29:41;;;;;;;5.97;5.13;;;;;;;;;;5027600;28;20182;-72
2022/05/12 05:32:09;;;;;;;6.53;5.33;;;;;;;;;;5026125;28;20202;-72
2022/05/12 05:34:34;;;;;;;11.00;6.03;;;;;;;;;;5033794;28;20248;-71
2022/05/12 05:36:59;;;;;;;8.77;5.07;;;;;;;;;;5026446;28;20175;-71
2022/05/12 05:39:25;;;;;;;8.77;5.10;;;;;;;;;;5023595;28;20544;-72
2022/05/12 05:41:52;;;;;;;10.90;4.73;;;;;;;;;;5019029;28;20249;-71
2022/05/12 05:44:17;;;;;;;6.67;4.60;;;;;;;;;;5027956;28;20288;-71
2022/05/12 05:46:42;;;;;;;7.90;4.37;;;;;;;;;;5031932;28;20695;-71
2022/05/12 05:49:08;;;;;;;7.93;4.27;;;;;;;;;;5028473;28;20183;-72
2022/05/12 05:54:16;;;;;;;7.67;3.73;;;;;;;;;;5023429;28;20336;-71
2022/05/12 05:56:43;;;;;;;7.70;3.90;;;;;;;;;;5033604;28;20652;-72
2022/05/12 05:59:08;;;;;;;14.80;5.73;;;;;;;;;;5034134;28;20174;-72
2022/05/12 06:01:34;;;;;;;9.95;4.35;;;;;;;;;;5025054;28;20637;-71
2022/05/12 06:03:59;;;;;;;11.50;4.20;;;;;;;;;;5031149;28;20224;-72
2022/05/12 06:06:25;;;;;;;6.70;3.90;;;;;;;;;;5023383;28;20253;-72
2022/05/12 06:08:50;;;;;;;6.47;3.92;;;;;;;;;;5024967;28;20300;-70
2022/05/12 06:11:15;;;;;;;9.45;4.13;;;;;;;;;;5024975;28;20237;-70
2022/05/12 06:13:41;;;;;;;13.63;4.20;;;;;;;;;;5011933;28;20236;-70
2022/05/12 06:16:06;;;;;;;7.80;3.78;;;;;;;;;;5023938;28;20197;-69
2022/05/12 06:18:31;;;;;;;8.05;3.78;;;;;;;;;;5012066;28;20186;-70
2022/05/12 06:20:56;;;;;;;6.82;3.53;;;;;;;;;;5009688;28;20333;-72
2022/05/12 06:23:22;;;;;;;6.50;3.47;;;;;;;;;;5017722;28;20608;-70
2022/05/12 06:25:47;;;;;;;8.07;3.70;;;;;;;;;;5027782;28;20170;-70
2022/05/12 06:28:12;;;;;;;7.15;3.90;;;;;;;;;;5010552;28;20640;-70
2022/05/12 06:30:39;;;;;;;6.13;4.38;;;;;;;;;;5015646;28;20209;-70
2022/05/12 06:33:05;;;;;;;7.28;3.03;;;;;;;;;;5011896;28;20190;-70
2022/05/12 06:35:30;;;;;;;9.15;3.20;;;;;;;;;;5011290;28;20178;-70
2022/05/12 06:37:56;;;;;;;6.25;3.35;;;;;;;;;;5010842;28;20661;-71
2022/05/12 06:40:21;;;;;;;7.95;3.67;;;;;;;;;;5013083;28;20190;-70
2022/05/12 06:42:47;;;;;;;5.63;3.00;;;;;;;;;;5012187;28;20663;-70
2022/05/12 06:45:14;;;;;;;9.38;3.13;;;;;;;;;;5012768;28;20691;-70
2022/05/12 06:47:46;;;;;;;9.43;3.58;;;;;;;;;;5013465;28;20179;-70
2022/05/12 06:50:11;;;;;;;7.75;2.92;;;;;;;;;;5014127;28;20258;-70
2022/05/12 06:52:37;;;;;;;8.45;3.35;;;;;;;;;;5011887;28;20218;-72
2022/05/12 06:55:02;;;;;;;6.13;2.95;;;;;;;;;;5012143;28;20186;-72
2022/05/12 06:57:27;;;;;;;6.38;2.90;;;;;;;;;;5014081;28;20191;-72
2022/05/12 06:59:53;;;;;;;6.32;2.70;;;;;;;;;;5014335;28;20266;-72
2022/05/12 07:02:18;;;;;;;5.03;2.72;;;;;;;;;;5007550;28;20202;-71
2022/05/12 07:04:45;;;;;;;5.97;2.67;;;;;;;;;;5010273;28;20202;-72
2022/05/12 07:07:11;;;;;;;5.55;3.00;;;;;;;;;;5012457;28;20942;-72
2022/05/12 07:09:37;;;;;;;6.78;4.10;;;;;;;;;;5015443;28;20209;-70
2022/05/12 07:12:02;;;;;;;5.72;2.75;;;;;;;;;;5020518;28;20237;-70
2022/05/12 07:14:27;;;;;;;7.50;3.22;;;;;;;;;;5024741;28;20597;-69
2022/05/12 07:16:53;;;;;;;4.82;2.88;;;;;;;;;;5021176;28;20628;-71
2022/05/12 07:19:18;;;;;;;7.15;2.88;;;;;;;;;;5013323;28;20253;-69
2022/05/12 07:27:16;;;;;;;4.68;2.72;;;;;;;;;;5017299;28;20563;-69
2022/05/12 07:29:41;;;;;;;6.43;2.63;;;;;;;;;;5019167;28;20181;-70
2022/05/12 07:32:07;;;;;;;5.53;2.40;;;;;;;;;;5028518;28;20206;-70
2022/05/12 07:34:32;;;;;;;6.20;2.60;;;;;;;;;;5023455;28;20655;-70
2022/05/12 07:36:58;;;;;;;7.60;2.90;;;;;;;;;;5013512;28;20270;-70
2022/05/12 07:39:28;;;;;;;4.93;2.93;;;;;;;;;;5028106;28;20982;-72
2022/05/12 07:41:54;;;;;;;5.20;2.15;;;;;;;;;;5030150;28;20534;-69
2022/05/12 07:44:20;;;;;;;3.08;2.10;;;;;;;;;;5034982;28;20344;-70
2022/05/12 07:46:46;;;;;;;4.60;2.83;;;;;;;;;;5033097;28;20550;-70
2022/05/12 07:49:11;;;;;;;5.63;2.45;;;;;;;;;;5029881;28;20190;-71
2022/05/12 07:51:36;;;;;;;4.30;2.67;;;;;;;;;;5029575;28;20584;-70
2022/05/12 07:54:02;;;;;;;4.65;1.95;;;;;;;;;;5032607;28;20182;-71
2022/05/12 07:56:27;;;;;;;6.15;2.28;;;;;;;;;;5024502;28;20171;-71
2022/05/12 07:58:53;;;;;;;7.38;2.75;;;;;;;;;;5030454;28;20186;-70
2022/05/12 08:01:19;;;;;;;4.93;2.03;;;;;;;;;;5028732;28;20198;-72
2022/05/12 08:03:45;;;;;;;4.20;2.15;;;;;;;;;;5036775;28;20210;-71
2022/05/12 08:06:10;;;;;;;3.97;2.03;;;;;;;;;;5031478;28;20274;-72
2022/05/12 08:08:36;;;;;;;2.95;2.10;;;;;;;;;;5030829;28;20205;-71
2022/05/12 08:11:01;;;;;;;4.65;1.50;;;;;;;;;;5027312;28;20263;-73
2022/05/12 08:13:27;;;;;;;5.25;2.08;;;;;;;;;;5034072;28;20170;-71
2022/05/12 08:15:53;;;;;;;6.88;2.63;;;;;;;;;;5031944;28;20177;-71
2022/05/12 08:18:21;;;;;;;4.20;1.80;;;;;;;;;;5025503;28;20179;-71
2022/05/12 08:20:46;;;;;;;4.15;1.90;;;;;;;;;;5013459;28;20206;-72
2022/05/12 08:23:12;;;;;;;6.57;1.92;;;;;;;;;;5013338;28;20186;-71
2022/05/12 08:25:37;;;;;;;6.03;2.40;;;;;;;;;;5027037;28;20255;-72
2022/05/12 08:28:03;;;;;;;4.38;2.20;;;;;;;;;;5024898;28;20175;-71
2022/05/12 08:30:30;;;;;;;3.85;2.53;;;;;;;;;;5021331;28;20193;-70
2022/05/12 08:32:55;;;;;;;4.00;2.00;;;;;;;;;;5023540;28;20602;-71
2022/05/12 08:35:20;;;;;;;6.95;2.60;;;;;;;;;;5028050;28;20178;-71
2022/05/12 08:37:45;;;;;;;3.93;1.57;;;;;;;;;;5023771;28;20277;-71
2022/05/12 08:40:15;;;;;;;4.28;1.95;;;;;;;;;;5029069;28;20430;-71
2022/05/12 08:42:44;;;;;;;6.65;2.13;;;;;;;;;;5025811;28;20201;-71
2022/05/12 08:45:11;;;;;;;5.10;2.50;;;;;;;;;;5032817;28;20264;-71
2022/05/12 08:47:42;;;;;;;4.57;2.67;;;;;;;;;;5027742;28;20244;-71
2022/05/12 08:50:08;;;;;;;2.80;1.33;;;;;;;;;;5030917;28;20636;-72
2022/05/12 08:52:46;;;;;;;5.10;1.90;;;;;;;;;;5025493;28;20285;-71
2022/05/12 08:55:11;;;;;;;4.88;1.73;;;;;;;;;;5024652;28;20181;-71
2022/05/12 08:57:38;;;;;;;9.37;2.00;;;;;;;;;;5021058;28;20667;-71
2022/05/12 09:00:06;;;;;;;4.15;1.60;;;;;;;;;;5029986;28;20423;-71
2022/05/12 09:02:31;;;;;;;4.43;1.95;;;;;;;;;;5032631;28;20293;-71
2022/05/12 09:04:56;;;;;;;2.65;1.20;;;;;;;;;;5033765;28;20289;-71
2022/05/12 09:07:28;;;;;;;5.07;1.48;;;;;;;;;;5027145;28;20225;-71
2022/05/12 09:10:16;;;;;;;4.55;1.35;;;;;;;;;;5025458;28;20225;-71
2022/05/12 09:12:52;;;;;;;4.20;1.27;;;;;;;;;;5019223;28;20210;-71
2022/05/12 09:15:18;;;;;;;2.95;1.25;;;;;;;;;;5032481;28;20558;-71
2022/05/12 09:17:47;;;;;;;2.70;1.40;;;;;;;;;;5029251;28;20186;-71
2022/05/12 09:20:13;;;;;;;4.40;1.15;;;;;;;;;;5031529;28;20606;-71
2022/05/12 09:22:39;;;;;;;2.58;1.05;;;;;;;;;;5031183;28;20205;-71
2022/05/12 09:25:06;;;;;;;2.78;1.00;;;;;;;;;;5030714;28;20261;-71
2022/05/12 09:27:33;;;;;;;2.63;1.05;;;;;;;;;;5026279;28;20173;-71
2022/05/12 09:29:58;;;;;;;2.25;1.10;;;;;;;;;;5023215;28;20666;-71
2022/05/12 09:32:31;;;;;;;2.85;0.88;;;;;;;;;;5028114;28;20191;-71
2022/05/12 09:35:07;;;;;;;3.35;1.17;;;;;;;;;;5025774;28;20175;-71
2022/05/12 09:37:32;;;;;;;2.22;1.00;;;;;;;;;;5024500;28;20192;-71
2022/05/12 09:40:12;;;;;;;3.50;1.27;;;;;;;;;;5020296;28;20262;-71
2022/05/12 09:42:39;;;;;;;4.40;1.20;;;;;;;;;;5023997;28;20205;-71
2022/05/12 09:45:06;;;;;;;4.25;1.40;;;;;;;;;;5024146;28;20251;-71
2022/05/12 09:47:32;;;;;;;4.13;1.05;;;;;;;;;;5023729;28;20631;-71
2022/05/12 09:50:24;;;;;;;4.22;1.33;;;;;;;;;;4997833;28;20191;-71
2022/05/12 09:52:58;;;;;;;2.42;1.35;;;;;;;;;;5004929;28;20547;-71
2022/05/12 09:55:28;;;;;;;5.57;1.60;;;;;;;;;;5018343;28;20560;-71
2022/05/12 09:57:53;;;;;;;5.28;1.13;;;;;;;;;;5023646;28;20214;-71
2022/05/12 10:00:32;;;;;;;5.97;1.75;;;;;;;;;;5023437;28;20229;-71
2022/05/12 10:08:39;;;;;;;2.80;1.67;;;;;;;;;;5020793;28;20716;-71
2022/05/12 10:11:06;;;;;;;2.73;1.33;;;;;;;;;;5020420;28;20278;-71
2022/05/12 10:13:31;;;;;;;7.70;1.48;;;;;;;;;;5025969;28;20540;-71
2022/05/12 10:15:58;;;;;;;5.15;2.03;;;;;;;;;;5024665;28;20208;-70
2022/05/12 10:18:34;;;;;;;2.33;1.55;;;;;;;;;;5014142;28;20667;-71
2022/05/12 10:21:09;;;;;;;4.43;1.80;;;;;;;;;;5019767;28;20643;-71
2022/05/12 10:24:09;;;;;;;3.88;1.65;;;;;;;;;;5021756;28;20180;-71
2022/05/12 10:26:36;;;;;;;4.18;1.63;;;;;;;;;;5016852;28;20302;-71
2022/05/12 10:29:07;;;;;;;4.60;1.15;;;;;;;;;;5022406;28;20195;-71
2022/05/12 10:31:36;;;;;;;5.35;2.00;;;;;;;;;;5018797;28;20198;-71
2022/05/12 10:34:14;;;;;;;3.10;1.35;;;;;;;;;;5030014;28;20190;-71
2022/05/12 10:36:48;;;;;;;2.00;1.00;;;;;;;;;;5028742;28;20325;-71
2022/05/12 10:39:18;;;;;;;3.30;1.40;;;;;;;;;;5023226;28;20526;-71
2022/05/12 10:41:53;;;;;;;3.90;1.50;;;;;;;;;;5023986;28;20759;-71
2022/05/12 10:44:26;;;;;;;2.45;1.40;;;;;;;;;;5024594;28;20209;-71
2022/05/12 10:46:56;;;;;;;3.33;1.30;;;;;;;;;;5022065;28;20249;-71
2022/05/12 10:49:21;;;;;;;3.00;1.60;;;;;;;;;;5019318;28;20170;-71
2022/05/12 10:51:59;;;;;;;2.92;1.58;;;;;;;;;;5022805;28;20201;-71
2022/05/12 10:54:35;;;;;;;3.42;1.50;;;;;;;;;;5018160;28;20189;-71
2022/05/12 10:57:15;;;;;;;5.03;1.33;;;;;;;;;;5024068;28;20684;-71
2022/05/12 10:59:52;;;;;;;3.50;1.35;;;;;;;;;;5018435;28;20224;-71
2022/05/12 11:02:33;;;;;;;3.92;1.30;;;;;;;;;;5020816;28;20800;-71
2022/05/12 11:05:04;;;;;;;1.40;1.10;;;;;;;;;;5022356;28;20724;-71
2022/05/12 11:07:38;;;;;;;3.92;1.23;;;;;;;;;;5014458;28;20183;-71
2022/05/12 11:10:26;;;;;;;3.65;1.27;;;;;;;;;;5008946;28;20186;-71
2022/05/12 11:12:53;;;;;;;2.88;1.27;;;;;;;;;;5022756;28;20672;-70
2022/05/12 11:15:22;;;;;;;2.45;1.25;;;;;;;;;;5023810;28;20221;-71
2022/05/12 11:17:54;;;;;;;3.63;1.35;;;;;;;;;;5022291;28;20190;-70
2022/05/12 11:20:25;;;;;;;4.55;1.70;;;;;;;;;;5020855;28;20182;-71
2022/05/12 11:22:50;;;;;;;4.90;1.35;;;;;;;;;;5021410;28;20182;-70
2022/05/12 11:25:34;;;;;;;2.72;0.98;;;;;;;;;;5021320;28;20198;-70
2022/05/12 11:31:21;;;;;;;4.05;1.00;;;;;;;;;;5020863;28;20317;-71
2022/05/12 11:33:50;;;;;;;1.30;1.00;;;;;;;;;;5022867;28;20178;-69
2022/05/12 11:36:16;;;;;;;3.20;1.20;;;;;;;;;;5029668;28;20570;-70
2022/05/12 11:38:43;;;;;;;2.53;1.20;;;;;;;;;;5017420;28;20171;-71
2022/05/12 11:41:21;;;;;;;3.08;1.38;;;;;;;;;;5025763;28;20684;-70
2022/05/12 11:46:41;;;;;;;2.15;1.05;;;;;;;;;;5019344;28;20173;-71
2022/05/12 11:49:09;;;;;;;2.45;1.25;;;;;;;;;;5021525;28;20183;-71
2022/05/12 11:51:35;;;;;;;4.53;1.10;;;;;;;;;;5013240;28;20302;-71
2022/05/12 11:54:03;;;;;;;2.47;1.20;;;;;;;;;;5020910;28;20671;-70
2022/05/12 11:56:36;;;;;;;4.35;1.30;;;;;;;;;;5019196;28;20186;-71
2022/05/12 11:59:33;;;;;;;2.55;1.08;;;;;;;;;;5027407;28;20179;-70
2022/05/12 12:02:00;;;;;;;3.08;1.38;;;;;;;;;;5013704;28;20206;-71
2022/05/12 12:04:43;;;;;;;3.97;1.30;;;;;;;;;;5019835;28;20260;-71
2022/05/12 12:07:14;;;;;;;5.85;1.27;;;;;;;;;;5022763;28;20603;-71
2022/05/12 12:09:39;;;;;;;2.65;2.03;;;;;;;;;;5028613;28;20221;-71
2022/05/12 12:12:09;;;;;;;1.80;1.25;;;;;;;;;;5028654;28;20222;-71
2022/05/12 12:14:43;;;;;;;5.15;1.55;;;;;;;;;;5022392;28;20233;-71
2022/05/12 12:17:10;;;;;;;3.67;1.10;;;;;;;;;;5024950;28;20241;-71
2022/05/12 12:19:41;;;;;;;5.78;1.40;;;;;;;;;;5026436;28;20178;-72
2022/05/12 12:22:16;;;;;;;2.53;0.90;;;;;;;;;;5028566;28;20321;-71
2022/05/12 12:24:44;;;;;;;2.58;1.00;;;;;;;;;;5026221;28;20206;-71
2022/05/12 12:27:26;;;;;;;3.13;1.27;;;;;;;;;;5023676;28;20241;-71
2022/05/12 12:29:51;;;;;;;4.82;1.35;;;;;;;;;;5029089;28;20213;-71
2022/05/12 12:32:23;;;;;;;4.00;1.47;;;;;;;;;;5028021;28;20225;-72
2022/05/12 12:34:50;;;;;;;4.20;1.33;;;;;;;;;;5030330;28;20433;-70
2022/05/12 12:37:35;;;;;;;4.47;1.05;;;;;;;;;;5024728;28;20182;-71
2022/05/12 12:40:00;;;;;;;1.80;1.20;;;;;;;;;;5024579;28;20186;-71
2022/05/12 12:42:28;;;;;;;4.50;1.33;;;;;;;;;;5031467;28;20206;-72
2022/05/12 12:44:55;;;;;;;2.20;1.05;;;;;;;;;;5027597;28;20502;-71
2022/05/12 12:47:29;;;;;;;2.47;1.20;;;;;;;;;;5031587;28;20171;-71
2022/05/12 12:50:08;;;;;;;4.88;1.45;;;;;;;;;;5026991;28;20173;-71
2022/05/12 12:52:38;;;;;;;2.65;0.90;;;;;;;;;;5024749;28;20690;-71
2022/05/12 12:57:58;;;;;;;1.33;0.90;;;;;;;;;;5024851;28;20190;-71
2022/05/12 13:00:34;;;;;;;5.57;1.30;;;;;;;;;;5029787;28;22262;-72
2022/05/12 13:03:01;;;;;;;2.45;1.17;;;;;;;;;;5027443;28;20243;-71
2022/05/12 13:05:27;;;;;;;2.03;1.20;;;;;;;;;;5022022;28;20255;-71
2022/05/12 13:07:57;;;;;;;2.65;1.60;;;;;;;;;;5023924;28;20175;-71
2022/05/12 13:10:22;;;;;;;4.07;1.58;;;;;;;;;;5023432;28;20264;-72
2022/05/12 13:12:52;;;;;;;4.45;1.58;;;;;;;;;;5027732;28;20266;-71
2022/05/12 13:15:19;;;;;;;4.93;2.28;;;;;;;;;;5030937;28;20177;-71
2022/05/12 13:17:48;;;;;;;5.05;1.40;;;;;;;;;;5024888;28;20178;-71
2022/05/12 13:20:17;;;;;;;2.30;1.30;;;;;;;;;;5029171;28;20178;-71
2022/05/12 13:22:47;;;;;;;6.90;1.92;;;;;;;;;;5030809;28;20194;-71
2022/05/12 13:25:15;;;;;;;2.92;1.25;;;;;;;;;;5024426;28;20289;-72
2022/05/12 13:27:41;;;;;;;5.57;1.73;;;;;;;;;;5027417;28;20612;-71
2022/05/12 13:30:13;;;;;;;4.70;1.25;;;;;;;;;;5030770;28;20186;-71
2022/05/12 13:32:50;;;;;;;1.30;0.85;;;;;;;;;;5030291;28;20186;-71
2022/05/12 13:35:15;;;;;;;4.00;1.15;;;;;;;;;;5031607;28;20653;-71
2022/05/12 13:37:49;;;;;;;3.30;1.25;;;;;;;;;;5024147;28;20189;-72
2022/05/12 13:40:33;;;;;;;5.15;1.20;;;;;;;;;;5024312;28;20572;-71
2022/05/12 13:42:58;;;;;;;2.42;1.17;;;;;;;;;;5029401;28;20182;-71
2022/05/12 13:45:25;;;;;;;3.77;1.20;;;;;;;;;;5030955;28;20202;-72
2022/05/12 13:47:51;;;;;;;2.45;1.20;;;;;;;;;;5026786;28;20427;-72
2022/05/12 13:50:17;;;;;;;2.22;1.10;;;;;;;;;;5028796;28;20668;-71
2022/05/12 13:52:45;;;;;;;2.20;0.98;;;;;;;;;;5023216;28;20195;-71
2022/05/12 13:55:24;;;;;;;2.47;1.20;;;;;;;;;;5026091;28;20554;-72
2022/05/12 13:57:51;;;;;;;2.85;1.40;;;;;;;;;;5029389;28;20182;-71
2022/05/12 14:00:18;;;;;;;1.75;1.00;;;;;;;;;;5028857;28;20265;-72
2022/05/12 14:02:45;;;;;;;3.28;1.10;;;;;;;;;;5027271;28;20225;-71
2022/05/12 14:05:11;;;;;;;1.50;1.10;;;;;;;;;;5020542;28;20201;-71
2022/05/12 14:07:37;;;;;;;2.33;1.20;;;;;;;;;;5022138;28;20166;-71
2022/05/12 14:10:11;;;;;;;3.22;1.17;;;;;;;;;;5027585;28;20193;-71
2022/05/12 14:19:13;;;;;;;3.45;1.27;;;;;;;;;;5026529;28;20681;-71
2022/05/12 14:20:51;;;;;;;1.38;1.00;;;;;;;;;;5020901;28;20220;-71
2022/05/12 14:23:16;;;;;;;1.53;1.10;;;;;;;;;;5022626;28;20178;-71
2022/05/12 14:25:41;;;;;;;4.77;1.53;;;;;;;;;;5018325;28;20459;-71
2022/05/12 14:28:06;;;;;;;3.33;1.10;;;;;;;;;;5023674;28;20522;-71
2022/05/12 14:30:31;;;;;;;2.67;1.15;;;;;;;;;;5018369;28;20416;-71
2022/05/12 14:32:57;;;;;;;1.13;0.82;;;;;;;;;;5014858;28;20190;-71
2022/05/12 14:35:24;;;;;;;2.30;1.00;;;;;;;;;;5023221;28;20206;-71
2022/05/12 14:37:49;;;;;;;4.68;0.95;;;;;;;;;;5028260;28;20656;-71
2022/05/12 14:40:15;;;;;;;4.07;1.15;;;;;;;;;;5022541;28;20186;-71
2022/05/12 14:42:40;;;;;;;1.67;1.00;;;;;;;;;;5025214;28;20558;-71
2022/05/12 14:45:06;;;;;;;2.67;0.80;;;;;;;;;;5013594;28;20230;-71
2022/05/12 14:47:31;;;;;;;3.92;0.77;;;;;;;;;;5020916;28;20433;-71
2022/05/12 14:49:57;;;;;;;2.45;0.98;;;;;;;;;;5021178;28;20179;-71
2022/05/12 14:52:24;;;;;;;4.03;0.90;;;;;;;;;;5022388;28;20268;-71
2022/05/12 14:54:50;;;;;;;3.92;1.02;;;;;;;;;;5026247;28;20201;-71
2022/05/12 14:57:16;;;;;;;2.47;0.90;;;;;;;;;;5025908;28;20648;-71
2022/05/12 14:59:41;;;;;;;3.47;1.10;;;;;;;;;;5023089;28;20218;-71
2022/05/12 15:02:14;;;;;;;1.92;0.80;;;;;;;;;;5027425;28;20229;-70
2022/05/12 15:04:39;;;;;;;2.85;0.88;;;;;;;;;;5025428;28;21025;-71
2022/05/12 15:07:05;;;;;;;1.20;0.82;;;;;;;;;;5026362;28;20205;-71
2022/05/12 15:09:30;;;;;;;3.42;1.38;;;;;;;;;;5022995;28;20652;-71
2022/05/12 15:11:55;;;;;;;2.30;0.93;;;;;;;;;;5028361;28;20186;-71
2022/05/12 15:14:20;;;;;;;3.63;0.97;;;;;;;;;;5026150;28;20479;-71